Alto, NM

10:09 AM MDT on April 23, 2017 (GMT -0600)
near Farley's | | Change Station
Active Advisory: Fire Weather Watch

Elev 7067 ft 33.37 °N, 105.67 °W | Updated 3 minutes ago

Clear
Clear
57.4 °F
Feels Like 57.4 °F
N
3.0
Wind Variable Wind from NW
Gusts 8.1 mph

Today
High -- | Low -- °F
--% Chance of Precip.
Yesterday
High -- | Low -- °F
Precip. -- in
Pressure 30.27 in
Visibility 10.0 miles
Clouds Clear
Dew Point 35 °F
Humidity 43%
Rainfall Not available.
Snow Depth Not available.
6:22 AM 7:39 PM
Waning Crescent, 11% visible
METAR KSRR 231555Z AUTO 15003KT 10SM CLR 10/00 A3027 RMK AO2
Pressure 30.27 in
Visibility 10.0 miles
Clouds Clear
Dew Point 35 °F
Humidity 43%
Rainfall Not available.
Snow Depth Not available.
6:22 AM 7:39 PM
Waning Crescent, 11% visible
METAR KSRR 231555Z AUTO 15003KT 10SM CLR 10/00 A3027 RMK AO2

Get Your Daily Forecast Email!

Thanks for signing up!

Be on the lookout for a verification email in your inbox.

You'll start receiving severe weather alerts in your inbox..

×

10-Day Weather Forecast

Almanac

Astronomy

Apr. 23, 2017 Rise Set
Actual Time
Civil Twilight
Nautical Twilight
Astronomical Twilight
Moon
Length of Visible Light
Length of Day
Tomorrow will be .
, % of the Moon is Illuminated

Today's Extremes

State Highs State Lows

Community

WunderPhotos

WunderBlog® & News

Nearby

Air Quality

  Air Quality AQ Index Pollutant
Not available.

Snow Depth

Station Depth Elevation

Earthquake Activity

City Distance Mag. Time & Date
Minimum magnitude displayed is 2.5.

Coastal Water Temperatures

Place Temperature

Stations

Nearby Weather Stations

Station Location Temp. Windchill Dew Point Humidity Wind Precip. Elev Updated Type
                   

Watches & Warnings

Fire Weather Watch
Issued: 6:33 AM MDT Apr. 23, 2017 – National Weather Service

... Fire Weather Watch remains in effect from Monday afternoon
through early Monday evening for strong winds and low relative
humidity for fire weather zones 055, 056, 110, 111, 112, and
113...

* affected area... fire weather zone 110. Fire weather zone 111.
Fire weather zone 112. Fire weather zone 113. Fire weather
zone 055. Fire weather zone 056.

* Wind... west-southwest 20 to 30 mph with gusts to 45 mph.

* Humidity... 5 to 8 percent.

* Highest threat... is located west of a line from Alamogordo to
El Paso.

* Impacts... any fires that develop will likely spread rapidly.
Outdoor burning is not recommended.

Precautionary/preparedness actions...

A Fire Weather Watch means that critical fire weather conditions
are forecast to occur. Listen for later forecasts and possible
red flag warnings.


22